createdAt,value
2023-03-31T00:02:13.850Z,42.66
2023-03-31T00:04:52.626Z,41.59
2023-03-31T00:07:23.438Z,40.81
2023-03-31T00:09:50.221Z,40.69
2023-03-31T00:12:17.177Z,42.14
2023-03-31T00:14:44.454Z,42.51
2023-03-31T00:17:12.265Z,42.44
2023-03-31T00:19:41.874Z,41.41
2023-03-31T00:22:08.981Z,40.82
2023-03-31T00:24:35.769Z,40.40
2023-03-31T00:27:04.275Z,41.28
2023-03-31T00:29:33.729Z,40.78
2023-03-31T00:32:00.508Z,41.02
2023-03-31T00:34:27.632Z,41.12
2023-03-31T00:36:56.567Z,41.86
2023-03-31T00:39:24.851Z,41.96
2023-03-31T00:41:52.204Z,41.96
2023-03-31T00:44:25.471Z,41.90
2023-03-31T00:46:56.362Z,42.11
2023-03-31T00:49:37.519Z,41.76
2023-03-31T00:52:13.557Z,41.79
2023-03-31T00:54:42.340Z,42.83
2023-03-31T00:57:09.939Z,42.72
2023-03-31T00:59:46.048Z,42.38
2023-03-31T01:02:14.616Z,42.04
2023-03-31T01:04:54.933Z,41.93
2023-03-31T01:07:33.692Z,41.95
2023-03-31T01:10:03.831Z,42.35
2023-03-31T01:12:32.789Z,42.42
2023-03-31T01:15:00.109Z,42.88
2023-03-31T01:17:30.001Z,42.78
2023-03-31T01:20:25.911Z,41.99
2023-03-31T01:23:30.866Z,42.42
2023-03-31T01:26:03.714Z,42.72
2023-03-31T01:29:08.932Z,42.11
2023-03-31T01:32:22.115Z,43.10
2023-03-31T01:35:26.214Z,45.08
2023-03-31T01:38:15.372Z,45.79
2023-03-31T01:40:41.957Z,44.72
2023-03-31T01:43:29.417Z,44.58
2023-03-31T01:46:10.156Z,45.00
2023-03-31T01:48:39.307Z,44.66
2023-03-31T01:51:15.557Z,46.24
2023-03-31T01:53:54.947Z,46.83
2023-03-31T01:56:36.964Z,45.40
2023-03-31T01:59:14.593Z,44.82
2023-03-31T02:01:49.732Z,44.64
2023-03-31T02:04:16.385Z,44.72
2023-03-31T02:06:50.211Z,44.54
2023-03-31T02:09:22.227Z,45.69
2023-03-31T02:11:50.609Z,45.21
2023-03-31T02:14:22.518Z,45.76
2023-03-31T02:16:52.607Z,46.15
2023-03-31T02:19:21.625Z,46.25
2023-03-31T02:21:49.956Z,47.43
2023-03-31T02:24:20.065Z,46.02
2023-03-31T02:27:03.769Z,48.28
2023-03-31T02:29:30.888Z,47.64
2023-03-31T02:32:37.617Z,48.47
2023-03-31T02:35:07.116Z,48.55
2023-03-31T02:37:34.422Z,48.65
2023-03-31T02:40:08.983Z,49.09
2023-03-31T02:42:35.695Z,49.74
2023-03-31T02:45:05.436Z,52.96
2023-03-31T02:47:32.836Z,54.35
2023-03-31T02:50:01.791Z,53.18
2023-03-31T02:52:33.603Z,53.60
2023-03-31T02:55:09.034Z,53.74
2023-03-31T02:58:07.527Z,53.08
2023-03-31T03:00:52.733Z,54.22
2023-03-31T03:04:02.317Z,52.60
2023-03-31T03:06:55.092Z,52.88
2023-03-31T03:09:59.491Z,52.81
2023-03-31T03:12:38.120Z,52.89
2023-03-31T03:15:21.475Z,51.26
2023-03-31T03:17:49.365Z,52.33
2023-03-31T03:20:16.407Z,52.44
2023-03-31T03:22:43.485Z,52.58
2023-03-31T03:25:13.759Z,52.53
2023-03-31T03:27:40.932Z,52.53
2023-03-31T03:30:10.878Z,51.89
2023-03-31T03:32:37.668Z,51.91
2023-03-31T03:35:06.192Z,52.11
2023-03-31T03:37:32.856Z,51.60
2023-03-31T03:39:59.476Z,51.57
2023-03-31T03:42:26.073Z,51.88
2023-03-31T03:44:52.717Z,51.27
2023-03-31T03:47:19.352Z,51.17
2023-03-31T03:49:45.974Z,53.16
2023-03-31T03:52:12.583Z,52.87
2023-03-31T03:54:39.225Z,52.50
2023-03-31T03:57:07.385Z,53.54
2023-03-31T03:59:34.122Z,53.01
2023-03-31T04:02:00.737Z,52.76
2023-03-31T04:04:27.373Z,50.98
2023-03-31T04:06:54.063Z,49.98
2023-03-31T04:09:20.739Z,49.31
2023-03-31T04:11:47.415Z,49.65
2023-03-31T04:14:14.071Z,49.64
2023-03-31T04:16:40.843Z,49.48
2023-03-31T04:19:08.503Z,49.15
2023-03-31T04:21:35.373Z,50.33
2023-03-31T04:24:04.529Z,51.09
2023-03-31T04:26:43.309Z,50.00
2023-03-31T04:29:16.269Z,50.04
2023-03-31T04:31:43.510Z,50.23
2023-03-31T04:34:14.507Z,49.72
2023-03-31T04:36:49.749Z,49.89
2023-03-31T04:39:18.277Z,50.09
2023-03-31T04:41:45.542Z,49.82
2023-03-31T04:44:12.375Z,50.19
2023-03-31T04:46:39.039Z,50.28
2023-03-31T04:49:05.975Z,51.52
2023-03-31T04:51:32.776Z,51.62
2023-03-31T04:53:59.401Z,53.16
2023-03-31T04:56:26.783Z,53.59
2023-03-31T04:58:53.691Z,52.63
2023-03-31T05:01:20.673Z,52.75
2023-03-31T05:03:48.173Z,52.13
2023-03-31T05:06:18.214Z,51.21
2023-03-31T05:08:45.326Z,51.06
2023-03-31T05:11:11.966Z,49.60
2023-03-31T05:13:38.598Z,48.06
2023-03-31T05:16:14.655Z,47.12
2023-03-31T05:18:42.039Z,47.57
2023-03-31T05:21:17.722Z,46.19
2023-03-31T05:23:45.041Z,46.66
2023-03-31T05:26:12.182Z,46.07
2023-03-31T05:28:39.462Z,45.90
2023-03-31T05:31:07.471Z,45.87
2023-03-31T05:33:34.980Z,44.89
2023-03-31T05:36:02.322Z,44.79
2023-03-31T05:38:31.336Z,44.39
2023-03-31T05:40:58.342Z,43.86
2023-03-31T05:43:25.236Z,43.18
2023-03-31T05:45:51.936Z,43.31
2023-03-31T05:48:18.740Z,43.18
2023-03-31T05:50:45.935Z,43.71
2023-03-31T05:53:12.576Z,43.21
2023-03-31T05:55:39.560Z,43.18
2023-03-31T05:58:06.946Z,43.03
2023-03-31T06:00:34.056Z,42.92
2023-03-31T06:03:00.734Z,43.38
2023-03-31T06:05:27.806Z,43.51
2023-03-31T06:07:54.411Z,41.99
2023-03-31T06:10:21.094Z,42.99
2023-03-31T06:12:47.779Z,43.66
2023-03-31T06:15:14.472Z,43.41
2023-03-31T06:17:41.310Z,43.55
2023-03-31T06:20:23.944Z,43.69
2023-03-31T06:22:53.709Z,43.15
2023-03-31T06:25:20.381Z,42.95
2023-03-31T06:27:47.042Z,43.28
2023-03-31T06:30:13.812Z,43.61
2023-03-31T06:32:40.590Z,43.71
2023-03-31T06:35:07.572Z,43.97
2023-03-31T06:37:34.226Z,44.15
2023-03-31T06:40:00.856Z,43.56
2023-03-31T06:42:27.507Z,43.77
2023-03-31T06:44:55.839Z,43.36
2023-03-31T06:47:22.586Z,43.35
2023-03-31T06:49:49.593Z,43.69
2023-03-31T06:52:16.589Z,43.48
2023-03-31T06:54:43.333Z,43.09
2023-03-31T06:57:10.129Z,43.69
2023-03-31T06:59:36.906Z,43.87
2023-03-31T07:02:04.082Z,42.94
2023-03-31T07:04:30.685Z,43.90
2023-03-31T07:06:59.148Z,43.86
2023-03-31T07:09:25.793Z,43.69
2023-03-31T07:11:52.360Z,44.35
2023-03-31T07:14:19.019Z,43.63
2023-03-31T07:16:45.854Z,44.17
2023-03-31T07:19:12.837Z,44.58
2023-03-31T07:21:39.491Z,44.79
2023-03-31T07:24:06.333Z,43.51
2023-03-31T07:26:33.326Z,42.23
2023-03-31T07:29:00.426Z,41.54
2023-03-31T07:31:27.131Z,42.81
2023-03-31T07:33:53.741Z,43.64
2023-03-31T07:36:21.231Z,43.93
2023-03-31T07:38:49.719Z,44.30
2023-03-31T07:41:21.266Z,43.56
2023-03-31T07:43:49.438Z,43.26
2023-03-31T07:46:18.579Z,43.45
2023-03-31T07:48:46.706Z,42.62
2023-03-31T07:51:18.549Z,44.00
2023-03-31T07:53:46.075Z,43.35
2023-03-31T07:56:13.285Z,43.33
2023-03-31T07:58:40.067Z,43.84
2023-03-31T08:01:08.075Z,44.50
2023-03-31T08:03:34.963Z,44.32
2023-03-31T08:06:02.237Z,43.61
2023-03-31T08:08:28.868Z,42.78
2023-03-31T08:10:55.533Z,42.26
2023-03-31T08:13:22.179Z,41.44
2023-03-31T08:15:48.879Z,42.10
2023-03-31T08:18:16.592Z,43.42
2023-03-31T08:20:43.208Z,42.57
2023-03-31T08:23:11.619Z,43.30
2023-03-31T08:25:38.671Z,42.07
2023-03-31T08:28:06.925Z,41.90
2023-03-31T08:30:33.693Z,42.06
2023-03-31T08:33:00.607Z,41.07
2023-03-31T08:35:27.315Z,40.36
2023-03-31T08:37:53.937Z,40.14
2023-03-31T08:40:26.066Z,39.75
2023-03-31T08:43:08.811Z,40.45
2023-03-31T08:45:40.115Z,42.03
2023-03-31T08:48:37.631Z,41.08
2023-03-31T08:51:16.559Z,41.77
2023-03-31T08:53:49.818Z,41.55
2023-03-31T08:56:20.173Z,41.31
2023-03-31T08:58:50.103Z,40.76
2023-03-31T09:01:54.803Z,39.99
2023-03-31T09:04:59.122Z,41.48
2023-03-31T09:07:28.535Z,40.47
2023-03-31T09:10:21.423Z,40.41
2023-03-31T09:13:02.844Z,39.55
2023-03-31T09:15:32.747Z,39.10
2023-03-31T09:18:07.405Z,37.43
2023-03-31T09:20:41.046Z,38.43
2023-03-31T09:23:32.793Z,37.74
2023-03-31T09:26:02.666Z,37.11
2023-03-31T09:28:39.840Z,38.71
2023-03-31T09:31:19.801Z,39.47
2023-03-31T09:33:48.182Z,38.72
2023-03-31T09:36:17.744Z,38.01
2023-03-31T09:38:47.060Z,37.25
2023-03-31T09:41:16.714Z,36.58
2023-03-31T09:43:46.292Z,37.95
2023-03-31T09:46:26.448Z,38.11
2023-03-31T09:49:06.278Z,37.33
2023-03-31T09:51:37.332Z,38.55
2023-03-31T09:54:22.362Z,38.59
2023-03-31T09:56:53.762Z,38.66
2023-03-31T09:59:21.773Z,38.67
2023-03-31T10:01:57.016Z,37.84
2023-03-31T10:04:27.636Z,38.54
2023-03-31T10:06:55.877Z,38.44
2023-03-31T10:09:27.528Z,38.46
2023-03-31T10:12:07.952Z,38.37
2023-03-31T10:15:02.188Z,37.46
2023-03-31T10:17:29.285Z,37.12
2023-03-31T10:20:06.396Z,37.71
2023-03-31T10:22:33.280Z,38.24
2023-03-31T10:25:29.221Z,37.59
2023-03-31T10:27:57.275Z,37.59
2023-03-31T10:30:28.836Z,37.49
2023-03-31T10:32:55.487Z,38.29
2023-03-31T10:35:50.145Z,38.07
2023-03-31T10:38:27.880Z,36.84
2023-03-31T10:40:59.132Z,37.15
2023-03-31T10:43:29.504Z,37.11
2023-03-31T10:46:00.767Z,36.70
2023-03-31T10:48:31.395Z,36.61
2023-03-31T10:51:19.089Z,37.44
2023-03-31T10:53:48.485Z,36.70
2023-03-31T10:56:36.650Z,37.29
2023-03-31T10:59:29.857Z,37.57
2023-03-31T11:02:33.826Z,36.85
2023-03-31T11:05:00.926Z,37.05
2023-03-31T11:07:50.969Z,36.40
2023-03-31T11:10:43.239Z,37.45
2023-03-31T11:13:33.858Z,36.73
2023-03-31T11:16:25.311Z,36.65
2023-03-31T11:18:54.542Z,36.11
2023-03-31T11:21:36.625Z,36.30
2023-03-31T11:24:19.910Z,37.06
2023-03-31T11:27:00.865Z,37.13
2023-03-31T11:29:38.298Z,36.60
2023-03-31T11:32:14.723Z,36.00
2023-03-31T11:35:09.386Z,36.81
2023-03-31T11:37:35.897Z,37.45
2023-03-31T11:40:22.019Z,36.53
2023-03-31T11:42:55.496Z,36.48
2023-03-31T11:45:28.526Z,37.41
2023-03-31T11:48:04.328Z,38.26
2023-03-31T11:50:40.273Z,39.15
2023-03-31T11:53:16.492Z,39.22
2023-03-31T11:55:47.074Z,38.79
2023-03-31T11:58:21.819Z,38.54
2023-03-31T12:00:50.693Z,38.50
2023-03-31T12:03:29.432Z,39.28
2023-03-31T12:06:02.729Z,37.96
2023-03-31T12:08:41.855Z,38.59
2023-03-31T12:11:20.190Z,39.08
2023-03-31T12:13:56.937Z,38.23
2023-03-31T12:16:32.404Z,38.24
2023-03-31T12:19:08.022Z,38.16
2023-03-31T12:21:38.541Z,38.59
2023-03-31T12:24:07.179Z,38.13
2023-03-31T12:26:53.062Z,39.14
2023-03-31T12:29:52.220Z,39.45
2023-03-31T12:32:24.056Z,39.22
2023-03-31T12:35:25.092Z,38.21
2023-03-31T12:37:57.918Z,39.01
2023-03-31T12:40:42.622Z,38.95
2023-03-31T12:43:35.200Z,38.66
2023-03-31T12:46:07.557Z,38.12
2023-03-31T12:48:54.866Z,37.64
2023-03-31T12:51:37.009Z,38.82
2023-03-31T12:54:18.697Z,38.35
2023-03-31T12:57:00.916Z,36.86
2023-03-31T12:59:35.613Z,37.04
2023-03-31T13:02:21.684Z,36.73
2023-03-31T13:04:49.720Z,36.65
2023-03-31T13:07:29.049Z,37.10
2023-03-31T13:10:17.193Z,37.18
2023-03-31T13:13:02.756Z,36.23
2023-03-31T13:15:30.761Z,35.41
2023-03-31T13:18:03.916Z,35.34
2023-03-31T13:20:30.713Z,34.83
2023-03-31T13:23:22.572Z,35.81
2023-03-31T13:25:51.295Z,36.09
2023-03-31T13:28:24.412Z,37.24
2023-03-31T13:30:52.645Z,36.68
2023-03-31T13:33:58.093Z,36.43
2023-03-31T13:36:24.981Z,36.59
2023-03-31T13:39:11.091Z,37.07
2023-03-31T13:41:46.296Z,36.12
2023-03-31T13:44:35.576Z,37.21
2023-03-31T13:47:21.428Z,37.34
2023-03-31T13:50:32.814Z,37.50
2023-03-31T13:52:59.439Z,37.92
2023-03-31T13:55:44.442Z,36.77
2023-03-31T13:58:25.528Z,37.29
2023-03-31T14:01:30.682Z,37.07
2023-03-31T14:04:09.335Z,36.20
2023-03-31T14:06:41.907Z,37.24
2023-03-31T14:09:13.669Z,36.04
2023-03-31T14:11:40.363Z,36.41
2023-03-31T14:14:11.449Z,35.85
2023-03-31T14:16:41.731Z,35.77
2023-03-31T14:19:27.410Z,37.54
2023-03-31T14:22:09.052Z,35.92
2023-03-31T14:24:49.396Z,36.61
2023-03-31T14:27:30.887Z,35.87
2023-03-31T14:30:13.086Z,36.48
2023-03-31T14:32:57.804Z,37.47
2023-03-31T14:35:46.914Z,36.31
2023-03-31T14:38:19.251Z,35.97
2023-03-31T14:40:54.530Z,35.66
2023-03-31T14:43:25.007Z,35.67
2023-03-31T14:46:06.038Z,34.84
2023-03-31T14:48:45.310Z,35.17
2023-03-31T14:51:15.868Z,34.75
2023-03-31T14:53:43.519Z,34.46
2023-03-31T14:56:14.838Z,34.56
2023-03-31T14:58:47.456Z,35.39
2023-03-31T15:01:23.910Z,34.99
2023-03-31T15:03:53.210Z,34.91
2023-03-31T15:06:19.939Z,34.22
2023-03-31T15:08:46.831Z,33.63
2023-03-31T15:11:19.467Z,34.23
2023-03-31T15:14:00.936Z,34.05
2023-03-31T15:16:44.310Z,34.90
2023-03-31T15:19:23.477Z,36.10
2023-03-31T15:22:14.212Z,36.03
2023-03-31T15:24:41.015Z,35.04
2023-03-31T15:27:20.550Z,35.13
2023-03-31T15:29:53.342Z,34.94
2023-03-31T15:32:36.558Z,34.64
2023-03-31T15:35:18.732Z,35.11
2023-03-31T15:37:48.802Z,34.56
2023-03-31T15:40:31.449Z,34.88
2023-03-31T15:43:13.407Z,35.20
2023-03-31T15:45:50.246Z,34.64
2023-03-31T15:48:24.124Z,35.09
2023-03-31T15:50:51.901Z,34.34
2023-03-31T15:53:28.917Z,34.04
2023-03-31T15:55:59.749Z,34.83
2023-03-31T15:58:53.046Z,34.97
2023-03-31T16:01:20.925Z,34.67
2023-03-31T16:03:47.979Z,33.91
2023-03-31T16:06:29.220Z,35.71
2023-03-31T16:09:07.119Z,34.92
2023-03-31T16:11:37.069Z,32.54
2023-03-31T16:14:27.410Z,30.96
2023-03-31T16:17:02.336Z,30.81
2023-03-31T16:19:39.360Z,31.64
2023-03-31T16:22:06.317Z,32.44
2023-03-31T16:24:35.370Z,33.31
2023-03-31T16:27:06.902Z,34.08
2023-03-31T16:29:34.835Z,35.21
2023-03-31T16:32:20.991Z,36.08
2023-03-31T16:34:59.032Z,36.49
2023-03-31T16:37:26.318Z,36.68
2023-03-31T16:39:53.128Z,36.60
2023-03-31T16:42:20.850Z,37.22
2023-03-31T16:44:59.957Z,37.66
2023-03-31T16:50:18.010Z,38.52
2023-03-31T16:52:45.458Z,38.46
2023-03-31T16:55:12.307Z,38.61
2023-03-31T16:57:38.935Z,38.79
2023-03-31T17:00:06.196Z,39.19
2023-03-31T17:02:32.897Z,39.74
2023-03-31T17:07:46.173Z,39.58
2023-03-31T17:10:13.498Z,39.80
2023-03-31T17:12:40.659Z,39.96
2023-03-31T17:15:08.077Z,39.86
2023-03-31T17:17:34.809Z,39.99
2023-03-31T17:20:02.294Z,39.63
2023-03-31T17:22:28.894Z,40.00
2023-03-31T17:24:58.462Z,40.03
2023-03-31T17:27:26.141Z,40.35
2023-03-31T17:29:53.140Z,40.70
2023-03-31T17:32:20.483Z,40.71
2023-03-31T17:34:50.543Z,41.10
2023-03-31T17:37:18.587Z,40.90
2023-03-31T17:39:45.830Z,40.87
2023-03-31T17:42:13.385Z,40.81
2023-03-31T17:44:40.758Z,40.84
2023-03-31T17:47:07.359Z,40.77
2023-03-31T17:49:34.094Z,41.18
2023-03-31T17:52:00.977Z,41.06
2023-03-31T17:54:27.601Z,41.24
2023-03-31T17:56:54.523Z,40.98
2023-03-31T17:59:22.207Z,40.85
2023-03-31T18:01:49.062Z,40.92
2023-03-31T18:04:16.276Z,40.50
2023-03-31T18:06:44.759Z,40.18
2023-03-31T18:09:12.008Z,39.19
2023-03-31T18:11:38.835Z,38.17
2023-03-31T18:14:06.431Z,37.46
2023-03-31T18:16:33.709Z,38.20
2023-03-31T18:19:00.782Z,36.87
2023-03-31T18:21:27.795Z,36.59
2023-03-31T18:23:55.264Z,36.22
2023-03-31T18:26:24.247Z,36.79
2023-03-31T18:28:52.412Z,37.32
2023-03-31T18:31:21.370Z,37.52
2023-03-31T18:33:48.517Z,37.33
2023-03-31T18:36:19.753Z,36.76
2023-03-31T18:38:47.866Z,36.98
2023-03-31T18:41:14.849Z,37.07
2023-03-31T18:43:41.961Z,36.67
2023-03-31T18:46:08.844Z,36.64
2023-03-31T18:48:35.614Z,36.34
2023-03-31T18:51:02.713Z,35.91
2023-03-31T18:53:30.226Z,35.93
2023-03-31T18:55:58.926Z,35.84
2023-03-31T18:58:28.812Z,35.31
2023-03-31T19:00:56.561Z,35.38
2023-03-31T19:03:23.839Z,35.41
2023-03-31T19:05:50.627Z,36.73
2023-03-31T19:08:17.488Z,36.33
2023-03-31T19:10:44.160Z,36.30
2023-03-31T19:13:15.967Z,35.95
2023-03-31T19:15:42.959Z,35.24
2023-03-31T19:18:14.753Z,35.18
2023-03-31T19:20:41.479Z,34.79
2023-03-31T19:23:08.540Z,35.27
2023-03-31T19:25:35.283Z,35.08
2023-03-31T19:28:02.358Z,34.97
2023-03-31T19:30:29.278Z,35.24
2023-03-31T19:32:56.130Z,35.56
2023-03-31T19:35:23.409Z,35.50
2023-03-31T19:37:51.136Z,35.99
2023-03-31T19:40:17.797Z,35.75
2023-03-31T19:42:44.506Z,35.90
2023-03-31T19:45:11.640Z,36.67
2023-03-31T19:47:38.554Z,36.79
2023-03-31T19:50:07.354Z,36.79
2023-03-31T19:52:34.166Z,37.28
2023-03-31T19:55:00.809Z,37.76
2023-03-31T19:57:27.825Z,37.76
2023-03-31T19:59:54.491Z,39.68
2023-03-31T20:02:21.372Z,40.89
2023-03-31T20:04:48.220Z,42.77
2023-03-31T20:07:14.892Z,43.97
2023-03-31T20:09:42.412Z,43.85
2023-03-31T20:12:09.010Z,42.55
2023-03-31T20:14:35.600Z,44.14
2023-03-31T20:17:03.306Z,43.66
2023-03-31T20:19:29.991Z,44.02
2023-03-31T20:21:57.973Z,43.95
2023-03-31T20:24:24.951Z,47.87
2023-03-31T20:26:52.048Z,48.56
2023-03-31T20:29:18.993Z,48.09
2023-03-31T20:31:46.119Z,47.25
2023-03-31T20:34:15.001Z,45.85
2023-03-31T20:36:43.932Z,45.48
2023-03-31T20:39:13.227Z,44.95
2023-03-31T20:41:40.221Z,45.54
2023-03-31T20:44:11.401Z,46.02
2023-03-31T20:46:40.997Z,45.65
2023-03-31T20:49:08.314Z,45.06
2023-03-31T20:51:39.805Z,45.37
2023-03-31T20:54:07.777Z,45.15
2023-03-31T20:56:37.910Z,45.01
2023-03-31T20:59:08.744Z,44.67
2023-03-31T21:01:36.837Z,45.36
2023-03-31T21:04:05.872Z,45.51
2023-03-31T21:06:38.545Z,45.13
2023-03-31T21:09:05.898Z,44.71
2023-03-31T21:11:33.109Z,44.66
2023-03-31T21:14:00.420Z,45.00
2023-03-31T21:16:27.280Z,45.14
2023-03-31T21:18:58.610Z,45.34
2023-03-31T21:21:26.845Z,45.24
2023-03-31T21:23:54.421Z,45.02
2023-03-31T21:26:22.049Z,47.08
2023-03-31T21:28:54.371Z,45.84
2023-03-31T21:31:24.253Z,45.20
2023-03-31T21:33:52.276Z,44.62
2023-03-31T21:36:22.758Z,44.43
2023-03-31T21:38:52.093Z,44.45
2023-03-31T21:41:22.655Z,44.95
2023-03-31T21:43:51.342Z,45.04
2023-03-31T21:46:20.370Z,44.83
2023-03-31T21:48:50.736Z,44.58
2023-03-31T21:51:19.071Z,44.15
2023-03-31T21:53:46.107Z,44.09
2023-03-31T21:56:12.925Z,44.61
2023-03-31T21:58:39.640Z,45.62
2023-03-31T22:01:06.586Z,45.18
2023-03-31T22:03:34.586Z,46.42
2023-03-31T22:06:03.721Z,45.83
2023-03-31T22:08:31.664Z,45.75
2023-03-31T22:11:00.573Z,45.22
2023-03-31T22:13:29.195Z,44.76
2023-03-31T22:15:56.413Z,44.64
2023-03-31T22:18:23.282Z,44.01
2023-03-31T22:20:50.840Z,47.02
2023-03-31T22:23:18.182Z,46.67
2023-03-31T22:25:44.835Z,47.41
2023-03-31T22:28:12.677Z,46.40
2023-03-31T22:30:39.546Z,46.05
2023-03-31T22:33:06.236Z,45.54
2023-03-31T22:35:33.194Z,45.61
2023-03-31T22:38:00.046Z,45.37
2023-03-31T22:40:29.110Z,45.03
2023-03-31T22:42:57.483Z,45.01
2023-03-31T22:45:24.213Z,44.76
2023-03-31T22:47:51.226Z,44.35
2023-03-31T22:50:18.008Z,44.59
2023-03-31T22:52:45.518Z,44.31
2023-03-31T22:55:12.178Z,44.27
2023-03-31T22:57:39.306Z,44.47
2023-03-31T23:00:06.595Z,44.11
2023-03-31T23:02:33.386Z,43.70
2023-03-31T23:05:00.212Z,42.78
2023-03-31T23:07:27.628Z,43.57
2023-03-31T23:09:54.212Z,43.24
2023-03-31T23:12:20.902Z,43.24
2023-03-31T23:14:47.474Z,43.68
2023-03-31T23:17:14.202Z,43.96
2023-03-31T23:19:40.854Z,43.82
2023-03-31T23:22:07.472Z,44.47
2023-03-31T23:24:34.173Z,44.48
2023-03-31T23:27:00.778Z,45.48
2023-03-31T23:29:28.156Z,45.53
2023-03-31T23:31:54.907Z,44.99
2023-03-31T23:34:21.596Z,46.24
2023-03-31T23:36:48.545Z,45.49
2023-03-31T23:39:15.372Z,45.37
2023-03-31T23:41:42.142Z,45.02
2023-03-31T23:44:08.884Z,45.19
2023-03-31T23:46:37.800Z,44.62
2023-03-31T23:49:05.042Z,43.93
2023-03-31T23:51:31.630Z,43.16
2023-03-31T23:53:58.255Z,41.92
2023-03-31T23:56:25.442Z,42.47
2023-03-31T23:58:52.127Z,42.98
